createdAt,value
2019-03-15T00:01:09.868Z,7.50
2019-03-15T00:03:37.325Z,7.50
2019-03-15T00:06:04.856Z,7.50
2019-03-15T00:08:32.321Z,7.40
2019-03-15T00:10:59.844Z,7.50
2019-03-15T00:13:27.316Z,7.40
2019-03-15T00:15:54.921Z,7.40
2019-03-15T00:18:22.477Z,7.40
2019-03-15T00:20:50.475Z,7.40
2019-03-15T00:23:17.871Z,7.40
2019-03-15T00:25:45.332Z,7.40
2019-03-15T00:28:13.035Z,7.40
2019-03-15T00:30:40.513Z,7.50
2019-03-15T00:33:08.032Z,7.50
2019-03-15T00:35:35.923Z,7.50
2019-03-15T00:38:03.557Z,7.50
2019-03-15T00:40:31.256Z,7.50
2019-03-15T00:42:59.469Z,7.50
2019-03-15T00:45:26.955Z,7.50
2019-03-15T00:47:54.390Z,7.50
2019-03-15T00:50:22.093Z,7.50
2019-03-15T00:52:49.879Z,7.50
2019-03-15T00:55:17.681Z,7.50
2019-03-15T00:57:45.059Z,7.50
2019-03-15T01:00:12.987Z,7.50
2019-03-15T01:02:43.983Z,7.50
2019-03-15T01:05:10.169Z,7.60
2019-03-15T01:07:37.971Z,7.60
2019-03-15T01:10:05.526Z,7.60
2019-03-15T01:12:33.203Z,7.60
2019-03-15T01:15:00.723Z,7.60
2019-03-15T01:17:28.744Z,7.60
2019-03-15T01:19:56.656Z,7.60
2019-03-15T01:22:24.008Z,7.60
2019-03-15T01:24:51.375Z,7.50
2019-03-15T01:27:19.192Z,7.50
2019-03-15T01:29:46.638Z,7.50
2019-03-15T01:32:14.350Z,7.50
2019-03-15T01:34:41.840Z,7.50
2019-03-15T01:37:09.362Z,7.40
2019-03-15T01:39:37.068Z,7.40
2019-03-15T01:42:04.847Z,7.40
2019-03-15T01:44:32.331Z,7.40
2019-03-15T01:47:00.141Z,7.40
2019-03-15T01:49:27.558Z,7.30
2019-03-15T01:51:55.126Z,7.30
2019-03-15T01:54:23.110Z,7.30
2019-03-15T01:56:50.587Z,7.20
2019-03-15T01:59:18.059Z,7.20
2019-03-15T02:01:45.618Z,7.20
2019-03-15T02:04:13.345Z,7.10
2019-03-15T02:06:40.873Z,7.10
2019-03-15T02:09:09.408Z,7.10
2019-03-15T02:11:37.058Z,7.00
2019-03-15T02:14:04.587Z,6.90
2019-03-15T02:16:32.082Z,7.00
2019-03-15T02:18:59.559Z,6.90
2019-03-15T02:21:27.394Z,6.90
2019-03-15T02:23:54.834Z,6.90
2019-03-15T02:26:22.948Z,6.90
2019-03-15T02:28:50.335Z,6.90
2019-03-15T02:31:18.123Z,6.90
2019-03-15T02:33:45.627Z,6.80
2019-03-15T02:36:13.950Z,6.80
2019-03-15T02:38:41.918Z,6.90
2019-03-15T02:41:09.469Z,6.90
2019-03-15T02:43:36.985Z,6.90
2019-03-15T02:46:04.415Z,6.90
2019-03-15T02:48:31.901Z,7.00
2019-03-15T02:50:59.380Z,7.00
2019-03-15T02:53:26.831Z,7.00
2019-03-15T02:55:54.446Z,7.00
2019-03-15T02:58:22.245Z,7.00
2019-03-15T03:00:49.731Z,7.00
2019-03-15T03:03:17.184Z,7.00
2019-03-15T03:05:44.660Z,7.10
2019-03-15T03:08:12.152Z,7.10
2019-03-15T03:10:39.774Z,7.10
2019-03-15T03:13:07.391Z,7.10
2019-03-15T03:15:34.868Z,7.10
2019-03-15T03:18:02.336Z,7.10
2019-03-15T03:20:29.863Z,7.20
2019-03-15T03:22:57.450Z,7.20
2019-03-15T03:25:25.031Z,7.20
2019-03-15T03:27:53.043Z,7.20
2019-03-15T03:30:20.557Z,7.20
2019-03-15T03:32:48.415Z,7.30
2019-03-15T03:35:15.975Z,7.30
2019-03-15T03:37:45.159Z,7.30
2019-03-15T03:40:12.971Z,7.30
2019-03-15T03:42:40.511Z,7.30
2019-03-15T03:45:08.144Z,7.30
2019-03-15T03:47:35.585Z,7.30
2019-03-15T03:50:04.823Z,7.30
2019-03-15T03:52:32.359Z,7.30
2019-03-15T03:55:00.086Z,7.30
2019-03-15T03:57:27.875Z,7.30
2019-03-15T03:59:55.331Z,7.30
2019-03-15T04:02:22.955Z,7.30
2019-03-15T04:04:50.744Z,7.30
2019-03-15T04:07:18.344Z,7.30
2019-03-15T04:09:46.044Z,7.30
2019-03-15T04:12:13.363Z,7.40
2019-03-15T04:14:40.771Z,7.40
2019-03-15T04:17:08.386Z,7.40
2019-03-15T04:19:35.838Z,7.40
2019-03-15T04:22:03.600Z,7.50
2019-03-15T04:24:31.094Z,7.50
2019-03-15T04:26:58.820Z,7.50
2019-03-15T04:29:26.587Z,7.50
2019-03-15T04:31:54.484Z,7.50
2019-03-15T04:34:21.951Z,7.60
2019-03-15T04:36:49.416Z,7.60
2019-03-15T04:39:16.852Z,7.60
2019-03-15T04:41:44.623Z,7.60
2019-03-15T04:44:12.050Z,7.60
2019-03-15T04:46:39.633Z,7.60
2019-03-15T04:49:06.990Z,7.60
2019-03-15T04:51:34.509Z,7.60
2019-03-15T04:54:01.939Z,7.70
2019-03-15T04:56:29.961Z,7.70
2019-03-15T04:58:57.519Z,7.70
2019-03-15T05:01:25.095Z,7.70
2019-03-15T05:03:52.954Z,7.70
2019-03-15T05:06:20.419Z,7.70
2019-03-15T05:08:48.183Z,7.70
2019-03-15T05:11:15.556Z,7.70
2019-03-15T05:13:43.030Z,7.70
2019-03-15T05:16:10.526Z,7.70
2019-03-15T05:18:38.231Z,7.60
2019-03-15T05:21:05.792Z,7.60
2019-03-15T05:23:33.542Z,7.60
2019-03-15T05:26:01.265Z,7.60
2019-03-15T05:28:28.716Z,7.60
2019-03-15T05:30:56.462Z,7.60
2019-03-15T05:33:24.029Z,7.60
2019-03-15T05:35:51.785Z,7.50
2019-03-15T05:38:19.303Z,7.60
2019-03-15T05:40:47.097Z,7.50
2019-03-15T05:43:15.169Z,7.50
2019-03-15T05:45:42.594Z,7.50
2019-03-15T05:48:10.210Z,7.50
2019-03-15T05:50:40.681Z,7.50
2019-03-15T05:53:07.182Z,7.50
2019-03-15T05:55:35.358Z,7.50
2019-03-15T05:58:02.935Z,7.50
2019-03-15T06:00:30.490Z,7.50
2019-03-15T06:02:58.055Z,7.40
2019-03-15T06:05:26.122Z,7.50
2019-03-15T06:07:53.960Z,7.40
2019-03-15T06:10:21.287Z,7.40
2019-03-15T06:12:49.454Z,7.40
2019-03-15T06:15:16.920Z,7.40
2019-03-15T06:17:44.673Z,7.40
2019-03-15T06:20:12.490Z,7.40
2019-03-15T06:22:40.415Z,7.40
2019-03-15T06:25:07.844Z,7.40
2019-03-15T06:27:35.345Z,7.40
2019-03-15T06:30:03.117Z,7.40
2019-03-15T06:32:30.923Z,7.50
2019-03-15T06:34:58.907Z,7.50
2019-03-15T06:37:26.571Z,7.50
2019-03-15T06:39:54.591Z,7.50
2019-03-15T06:42:22.546Z,7.50
2019-03-15T06:44:57.871Z,7.50
2019-03-15T06:47:19.572Z,7.50
2019-03-15T06:49:47.504Z,7.50
2019-03-15T06:52:15.383Z,7.50
2019-03-15T06:54:43.090Z,7.60
2019-03-15T06:57:10.811Z,7.60
2019-03-15T06:59:38.558Z,7.50
2019-03-15T07:02:06.342Z,7.60
2019-03-15T07:04:33.760Z,7.60
2019-03-15T07:07:01.169Z,7.60
2019-03-15T07:09:30.877Z,7.60
2019-03-15T07:12:08.840Z,7.60
2019-03-15T07:14:27.485Z,7.70
2019-03-15T07:16:55.160Z,7.70
2019-03-15T07:19:28.877Z,7.70
2019-03-15T07:21:52.265Z,7.70
2019-03-15T07:24:25.093Z,7.70
2019-03-15T07:26:49.414Z,7.70
2019-03-15T07:29:18.995Z,7.80
2019-03-15T07:31:46.196Z,7.80
2019-03-15T07:34:14.244Z,7.80
2019-03-15T07:36:41.824Z,7.90
2019-03-15T07:39:09.187Z,7.90
2019-03-15T07:41:37.209Z,7.90
2019-03-15T07:44:04.929Z,7.90
2019-03-15T07:46:32.654Z,8.00
2019-03-15T07:49:00.388Z,8.00
2019-03-15T07:51:28.162Z,8.00
2019-03-15T07:53:55.888Z,8.10
2019-03-15T07:56:23.312Z,8.10
2019-03-15T07:58:50.916Z,8.10
2019-03-15T08:01:18.363Z,8.10
2019-03-15T08:03:45.846Z,8.10
2019-03-15T08:06:13.830Z,8.20
2019-03-15T08:08:41.746Z,8.30
2019-03-15T08:11:09.374Z,8.30
2019-03-15T08:13:36.959Z,8.40
2019-03-15T08:16:04.463Z,8.40
2019-03-15T08:18:31.972Z,8.50
2019-03-15T08:21:00.103Z,8.50
2019-03-15T08:23:27.646Z,8.60
2019-03-15T08:25:55.170Z,8.60
2019-03-15T08:28:22.870Z,8.60
2019-03-15T08:30:50.527Z,8.60
2019-03-15T08:33:18.603Z,8.70
2019-03-15T08:35:46.052Z,8.70
2019-03-15T08:38:13.620Z,8.70
2019-03-15T08:40:41.181Z,8.80
2019-03-15T08:43:08.938Z,8.80
2019-03-15T08:45:36.444Z,8.80
2019-03-15T08:48:04.240Z,8.90
2019-03-15T08:50:31.736Z,9.00
2019-03-15T08:52:59.338Z,9.00
2019-03-15T08:55:31.403Z,9.10
2019-03-15T08:58:13.129Z,9.10
2019-03-15T09:00:31.657Z,9.20
2019-03-15T09:03:02.642Z,9.30
2019-03-15T09:05:33.267Z,9.30
2019-03-15T09:08:04.521Z,9.40
2019-03-15T09:10:43.167Z,9.50
2019-03-15T09:13:38.725Z,9.60
2019-03-15T09:16:10.747Z,9.70
2019-03-15T09:18:55.779Z,9.80
2019-03-15T09:21:46.082Z,9.90
2019-03-15T09:24:14.365Z,10.00
2019-03-15T09:26:42.003Z,10.10
2019-03-15T09:29:09.579Z,10.20
2019-03-15T09:31:47.135Z,10.20
2019-03-15T09:34:06.524Z,10.30
2019-03-15T09:36:49.513Z,10.40
2019-03-15T09:39:06.583Z,10.40
2019-03-15T09:41:39.533Z,10.50
2019-03-15T09:44:03.634Z,10.60
2019-03-15T09:46:37.882Z,10.60
2019-03-15T09:49:05.363Z,10.70
2019-03-15T09:51:33.292Z,10.70
2019-03-15T09:54:01.379Z,10.80
2019-03-15T09:56:28.877Z,11.00
2019-03-15T09:58:57.282Z,11.10
2019-03-15T10:01:34.850Z,11.20
2019-03-15T10:03:57.618Z,11.30
2019-03-15T10:06:27.464Z,11.30
2019-03-15T10:08:55.124Z,11.30
2019-03-15T10:11:25.450Z,11.40
2019-03-15T10:13:53.230Z,11.50
2019-03-15T10:16:23.668Z,11.60
2019-03-15T10:18:51.628Z,11.70
2019-03-15T10:21:20.347Z,11.80
2019-03-15T10:23:48.423Z,11.90
2019-03-15T10:26:17.720Z,12.10
2019-03-15T10:28:46.774Z,12.10
2019-03-15T10:31:14.551Z,12.20
2019-03-15T10:33:50.455Z,12.20
2019-03-15T10:36:12.343Z,12.40
2019-03-15T10:38:39.883Z,12.40
2019-03-15T10:41:07.803Z,12.50
2019-03-15T10:43:38.423Z,12.50
2019-03-15T10:46:06.385Z,12.60
2019-03-15T10:48:34.466Z,12.70
2019-03-15T10:51:07.904Z,12.70
2019-03-15T10:53:35.572Z,12.70
2019-03-15T10:56:05.725Z,12.70
2019-03-15T10:58:34.101Z,12.70
2019-03-15T11:01:02.159Z,12.80
2019-03-15T11:03:30.089Z,12.70
2019-03-15T11:05:58.360Z,12.70
2019-03-15T11:08:26.058Z,12.80
2019-03-15T11:10:53.596Z,12.80
2019-03-15T11:13:21.186Z,12.80
2019-03-15T11:15:48.743Z,12.80
2019-03-15T11:18:16.648Z,12.80
2019-03-15T11:20:44.205Z,12.70
2019-03-15T11:23:13.694Z,12.70
2019-03-15T11:25:41.255Z,12.80
2019-03-15T11:28:08.774Z,12.80
2019-03-15T11:30:36.322Z,12.90
2019-03-15T11:33:04.479Z,12.90
2019-03-15T11:35:32.460Z,13.00
2019-03-15T11:38:00.479Z,13.00
2019-03-15T11:40:32.984Z,13.00
2019-03-15T11:43:00.715Z,13.00
2019-03-15T11:45:28.926Z,13.10
2019-03-15T11:48:04.421Z,13.20
2019-03-15T11:50:26.477Z,13.30
2019-03-15T11:52:53.979Z,13.50
2019-03-15T11:55:26.329Z,13.50
2019-03-15T11:57:53.755Z,13.60
2019-03-15T12:00:22.002Z,13.60
2019-03-15T12:02:49.623Z,13.80
2019-03-15T12:05:17.658Z,13.90
2019-03-15T12:07:46.776Z,14.00
2019-03-15T12:10:14.569Z,14.10
2019-03-15T12:12:42.435Z,14.20
2019-03-15T12:15:10.314Z,14.00
2019-03-15T12:17:45.408Z,14.10
2019-03-15T12:20:13.746Z,14.00
2019-03-15T12:22:43.105Z,14.00
2019-03-15T12:25:10.787Z,14.00
2019-03-15T12:27:41.810Z,13.90
2019-03-15T12:30:09.509Z,13.90
2019-03-15T12:32:37.581Z,13.80
2019-03-15T12:35:07.142Z,13.80
2019-03-15T12:37:34.692Z,13.80
2019-03-15T12:40:02.851Z,13.90
2019-03-15T12:42:30.388Z,14.00
2019-03-15T12:45:00.399Z,14.00
2019-03-15T12:47:28.418Z,14.00
2019-03-15T12:49:56.900Z,13.90
2019-03-15T12:52:24.901Z,13.80
2019-03-15T12:54:53.705Z,13.70
2019-03-15T12:57:22.005Z,13.60
2019-03-15T12:59:55.368Z,13.60
2019-03-15T13:02:22.914Z,13.60
2019-03-15T13:04:52.077Z,13.60
2019-03-15T13:07:19.943Z,13.60
2019-03-15T13:09:47.555Z,13.60
2019-03-15T13:12:15.526Z,13.50
2019-03-15T13:14:43.048Z,13.50
2019-03-15T13:17:10.639Z,13.60
2019-03-15T13:19:38.309Z,13.60
2019-03-15T13:22:05.828Z,13.50
2019-03-15T13:24:33.492Z,13.50
2019-03-15T13:27:07.542Z,13.40
2019-03-15T13:29:31.258Z,13.30
2019-03-15T13:31:58.742Z,13.30
2019-03-15T13:34:29.838Z,13.30
2019-03-15T13:36:57.401Z,13.20
2019-03-15T13:39:25.555Z,13.20
2019-03-15T13:41:53.314Z,13.20
2019-03-15T13:44:20.815Z,13.30
2019-03-15T13:46:48.424Z,13.20
2019-03-15T13:49:16.469Z,13.20
2019-03-15T13:51:44.289Z,13.30
2019-03-15T13:54:12.109Z,13.30
2019-03-15T13:56:39.888Z,13.30
2019-03-15T13:59:07.380Z,13.30
2019-03-15T14:01:34.999Z,13.30
2019-03-15T14:04:02.441Z,13.30
2019-03-15T14:06:30.182Z,13.30
2019-03-15T14:08:58.171Z,13.30
2019-03-15T14:11:25.679Z,13.30
2019-03-15T14:13:53.704Z,13.30
2019-03-15T14:16:21.475Z,13.40
2019-03-15T14:18:49.243Z,13.40
2019-03-15T14:21:16.855Z,13.40
2019-03-15T14:23:44.564Z,13.40
2019-03-15T14:26:12.331Z,13.30
2019-03-15T14:28:40.086Z,13.30
2019-03-15T14:31:07.650Z,13.30
2019-03-15T14:33:35.459Z,13.30
2019-03-15T14:36:04.100Z,13.30
2019-03-15T14:38:31.804Z,13.20
2019-03-15T14:40:59.207Z,13.30
2019-03-15T14:43:27.025Z,13.20
2019-03-15T14:45:54.743Z,13.20
2019-03-15T14:48:22.590Z,13.20
2019-03-15T14:50:50.754Z,13.20
2019-03-15T14:53:18.980Z,13.20
2019-03-15T14:55:46.562Z,13.20
2019-03-15T14:58:14.360Z,13.20
2019-03-15T15:00:42.122Z,13.20
2019-03-15T15:03:09.835Z,13.20
2019-03-15T15:05:37.406Z,13.10
2019-03-15T15:08:05.259Z,13.20
2019-03-15T15:10:32.720Z,13.20
2019-03-15T15:13:00.413Z,13.20
2019-03-15T15:15:28.248Z,13.20
2019-03-15T15:17:56.123Z,13.20
2019-03-15T15:20:23.589Z,13.10
2019-03-15T15:22:52.276Z,13.10
2019-03-15T15:25:23.102Z,13.00
2019-03-15T15:28:03.529Z,13.10
2019-03-15T15:30:20.649Z,13.00
2019-03-15T15:32:48.901Z,13.00
2019-03-15T15:35:16.942Z,13.00
2019-03-15T15:38:04.076Z,13.00
2019-03-15T15:40:31.881Z,13.00
2019-03-15T15:42:59.919Z,12.90
2019-03-15T15:45:29.873Z,12.90
2019-03-15T15:47:57.092Z,12.90
2019-03-15T15:50:24.668Z,12.80
2019-03-15T15:52:52.615Z,12.80
2019-03-15T15:55:20.790Z,12.80
2019-03-15T15:57:48.300Z,12.70
2019-03-15T16:00:16.085Z,12.70
2019-03-15T16:02:43.893Z,12.70
2019-03-15T16:05:11.771Z,12.70
2019-03-15T16:07:39.634Z,12.70
2019-03-15T16:10:08.818Z,12.70
2019-03-15T16:12:36.477Z,12.70
2019-03-15T16:15:05.132Z,12.70
2019-03-15T16:17:32.967Z,12.80
2019-03-15T16:20:02.374Z,12.70
2019-03-15T16:22:29.885Z,12.70
2019-03-15T16:24:57.651Z,12.80
2019-03-15T16:27:25.433Z,12.80
2019-03-15T16:29:53.374Z,12.80
2019-03-15T16:32:22.025Z,12.80
2019-03-15T16:34:49.595Z,12.80
2019-03-15T16:37:17.294Z,12.80
2019-03-15T16:39:45.055Z,12.80
2019-03-15T16:42:12.541Z,12.80
2019-03-15T16:44:40.005Z,12.80
2019-03-15T16:47:07.895Z,12.80
2019-03-15T16:49:35.376Z,12.80
2019-03-15T16:52:03.468Z,12.80
2019-03-15T16:54:33.443Z,12.70
2019-03-15T16:57:00.948Z,12.70
2019-03-15T16:59:28.995Z,12.60
2019-03-15T17:01:56.754Z,12.60
2019-03-15T17:04:24.347Z,12.60
2019-03-15T17:06:52.439Z,12.60
2019-03-15T17:09:19.880Z,12.50
2019-03-15T17:11:47.443Z,12.50
2019-03-15T17:14:25.066Z,12.40
2019-03-15T17:16:45.022Z,12.40
2019-03-15T17:19:12.575Z,12.30
2019-03-15T17:21:40.604Z,12.30
2019-03-15T17:24:08.208Z,12.30
2019-03-15T17:26:35.950Z,12.30
2019-03-15T17:29:03.576Z,12.20
2019-03-15T17:31:31.384Z,12.10
2019-03-15T17:33:58.934Z,12.10
2019-03-15T17:36:27.126Z,12.10
2019-03-15T17:38:54.721Z,12.10
2019-03-15T17:41:22.484Z,12.10
2019-03-15T17:43:50.215Z,12.10
2019-03-15T17:46:18.114Z,12.10
2019-03-15T17:48:45.512Z,12.10
2019-03-15T17:51:13.644Z,12.10
2019-03-15T17:53:41.388Z,12.00
2019-03-15T17:56:08.931Z,12.00
2019-03-15T17:58:36.449Z,12.00
2019-03-15T18:01:06.586Z,12.00
2019-03-15T18:03:37.086Z,12.10
2019-03-15T18:06:05.317Z,12.10
2019-03-15T18:08:33.056Z,12.00
2019-03-15T18:11:01.631Z,12.10
2019-03-15T18:13:29.971Z,12.10
2019-03-15T18:15:57.715Z,12.10
2019-03-15T18:18:25.910Z,12.10
2019-03-15T18:20:53.468Z,12.10
2019-03-15T18:23:21.108Z,12.10
2019-03-15T18:25:48.878Z,12.10
2019-03-15T18:28:16.472Z,12.10
2019-03-15T18:30:44.416Z,12.10
2019-03-15T18:33:11.946Z,12.10
2019-03-15T18:35:39.505Z,12.10
2019-03-15T18:38:07.415Z,12.10
2019-03-15T18:40:35.278Z,12.10
2019-03-15T18:43:02.780Z,12.10
2019-03-15T18:45:30.301Z,12.10
2019-03-15T18:47:58.129Z,12.10
2019-03-15T18:50:25.954Z,12.10
2019-03-15T18:52:54.467Z,12.10
2019-03-15T18:55:22.140Z,12.10
2019-03-15T18:57:49.926Z,12.10
2019-03-15T19:00:17.793Z,12.10
2019-03-15T19:02:45.492Z,12.10
2019-03-15T19:05:13.360Z,12.10
2019-03-15T19:07:40.839Z,12.10
2019-03-15T19:10:08.462Z,12.10
2019-03-15T19:12:36.040Z,12.10
2019-03-15T19:15:04.514Z,12.00
2019-03-15T19:17:32.085Z,12.00
2019-03-15T19:19:59.924Z,12.00
2019-03-15T19:22:27.659Z,12.00
2019-03-15T19:24:55.242Z,11.90
2019-03-15T19:27:22.890Z,11.90
2019-03-15T19:29:53.996Z,11.90
2019-03-15T19:32:20.015Z,11.90
2019-03-15T19:34:47.557Z,11.90
2019-03-15T19:37:15.393Z,11.90
2019-03-15T19:39:42.962Z,11.80
2019-03-15T19:42:10.443Z,11.80
2019-03-15T19:44:37.962Z,11.80
2019-03-15T19:47:05.476Z,11.80
2019-03-15T19:49:32.988Z,11.80
2019-03-15T19:52:00.523Z,11.80
2019-03-15T19:54:28.231Z,11.80
2019-03-15T19:56:55.775Z,11.80
2019-03-15T19:59:23.875Z,11.80
2019-03-15T20:01:51.332Z,11.80
2019-03-15T20:04:18.752Z,11.70
2019-03-15T20:06:49.690Z,11.70
2019-03-15T20:09:15.838Z,11.70
2019-03-15T20:11:43.376Z,11.80
2019-03-15T20:14:11.035Z,11.70
2019-03-15T20:16:38.512Z,11.80
2019-03-15T20:19:06.283Z,11.70
2019-03-15T20:21:34.003Z,11.70
2019-03-15T20:24:01.543Z,11.70
2019-03-15T20:26:28.999Z,11.70
2019-03-15T20:28:56.793Z,11.70
2019-03-15T20:31:24.565Z,11.70
2019-03-15T20:33:52.158Z,11.70
2019-03-15T20:36:19.707Z,11.70
2019-03-15T20:38:47.097Z,11.70
2019-03-15T20:41:14.516Z,11.70
2019-03-15T20:43:41.897Z,11.70
2019-03-15T20:46:09.705Z,11.70
2019-03-15T20:48:37.543Z,11.70
2019-03-15T20:51:05.208Z,11.70
2019-03-15T20:53:32.722Z,11.70
2019-03-15T20:56:00.547Z,11.80
2019-03-15T20:58:27.982Z,11.80
2019-03-15T21:00:55.572Z,11.80
2019-03-15T21:03:23.395Z,11.80
2019-03-15T21:05:50.884Z,11.80
2019-03-15T21:08:18.375Z,11.80
2019-03-15T21:10:45.828Z,11.80
2019-03-15T21:13:13.999Z,11.80
2019-03-15T21:15:41.807Z,11.80
2019-03-15T21:18:11.398Z,11.80
2019-03-15T21:20:39.170Z,11.80
2019-03-15T21:23:06.667Z,11.80
2019-03-15T21:25:43.676Z,11.80
2019-03-15T21:28:12.707Z,11.80
2019-03-15T21:30:48.307Z,11.80
2019-03-15T21:33:10.491Z,11.80
2019-03-15T21:35:38.364Z,11.80
2019-03-15T21:38:08.147Z,11.80
2019-03-15T21:40:35.897Z,11.80
2019-03-15T21:43:03.574Z,11.80
2019-03-15T21:45:31.053Z,11.80
2019-03-15T21:47:58.587Z,11.80
2019-03-15T21:50:26.547Z,11.90
2019-03-15T21:52:54.121Z,11.80
2019-03-15T21:55:24.539Z,11.80
2019-03-15T21:57:52.351Z,11.80
2019-03-15T22:00:20.008Z,11.80
2019-03-15T22:02:47.414Z,11.80
2019-03-15T22:05:15.309Z,11.80
2019-03-15T22:07:42.835Z,11.80
2019-03-15T22:10:11.061Z,11.80
2019-03-15T22:12:38.569Z,11.80
2019-03-15T22:15:07.512Z,11.80
2019-03-15T22:17:36.291Z,11.80
2019-03-15T22:20:04.635Z,11.80
2019-03-15T22:22:32.538Z,11.80
2019-03-15T22:25:03.355Z,11.80
2019-03-15T22:27:31.189Z,11.80
2019-03-15T22:29:58.810Z,11.80
2019-03-15T22:32:26.806Z,11.80
2019-03-15T22:34:54.495Z,11.80
2019-03-15T22:37:22.112Z,11.80
2019-03-15T22:39:49.641Z,11.80
2019-03-15T22:42:17.138Z,11.80
2019-03-15T22:44:44.626Z,11.80
2019-03-15T22:47:12.693Z,11.70
2019-03-15T22:49:40.959Z,11.70
2019-03-15T22:52:08.526Z,11.70
2019-03-15T22:54:36.228Z,11.70
2019-03-15T22:57:03.987Z,11.60
2019-03-15T22:59:31.895Z,11.60
2019-03-15T23:01:59.846Z,11.60
2019-03-15T23:04:27.583Z,11.60
2019-03-15T23:06:55.567Z,11.60
2019-03-15T23:09:23.397Z,11.60
2019-03-15T23:11:50.814Z,11.60
2019-03-15T23:14:18.340Z,11.60
2019-03-15T23:16:45.815Z,11.60
2019-03-15T23:19:13.354Z,11.60
2019-03-15T23:21:40.780Z,11.60
2019-03-15T23:24:08.478Z,11.60
2019-03-15T23:26:35.996Z,11.50
2019-03-15T23:29:03.454Z,11.60
2019-03-15T23:31:43.171Z,11.50
2019-03-15T23:34:00.246Z,11.50
2019-03-15T23:36:28.138Z,11.50
2019-03-15T23:38:55.984Z,11.50
2019-03-15T23:41:23.442Z,11.60
2019-03-15T23:43:50.857Z,11.50
2019-03-15T23:46:18.369Z,11.50
2019-03-15T23:48:45.863Z,11.60
2019-03-15T23:51:13.765Z,11.50
2019-03-15T23:53:42.770Z,11.50
2019-03-15T23:56:10.617Z,11.50
2019-03-15T23:58:38.489Z,11.50
